首页
METAR-TAF:

METAR-TAF

机场 :

Frederick Municipal Airport

弗雷德里克, 马里兰州, 美国

纬度: 39-25-03N, 经度: 077-22-28W, 海拔: 92米

当前天气观测

该预报发布于1小时和5分钟前的14:47 UTC
静风
温度 -2°C
湿度 93%
气压 1034 hPa
能見度: 16.1公里
天空无云

METAR: KFDK 081447Z 00000KT 10SM SKC M02/M03 A3052

时间: 10:52 (15:52 UTC)


TAF: 丢失

超过4000个机场的气象观测和天气预报(METAR&TAF报告)。

可查询的气象台以黄色和红色小点在地图上表示。

将鼠标移到小点上方,可查看气象台名称。

然后点击查看天气观测和预报。

如需切换地图:点击带黑十字的绿色按钮放大地图;点击带横线的绿色按钮缩小地图;或者点击绿色箭头查看邻近地区的地图。


METAR-TAF: